Time;durP1;ratioP1;P1;durP2;ratioP2;P2;SDS_P1;SDS_P2;PMS_P1;PMS_P2;Temp;Humidity;BMP_temperature;BMP_pressure;BME280_temperature;BME280_humidity;BME280_pressure;Samples;Min_cycle;Max_cycle;Signal;HPM_P1;HPM_P2
2022/02/09 00:01:27;;;;;;;66.13;61.73;;;;;;;11.18;100.00;102560.80;2005991;71;32827;-76
2022/02/09 00:07:30;;;;;;;65.40;61.10;;;;;;;11.21;100.00;102552.52;2016235;71;32803;-73
2022/02/09 00:13:44;;;;;;;61.67;57.30;;;;;;;11.12;100.00;102558.17;2016432;70;33360;-76
2022/02/09 00:19:54;;;;;;;62.77;58.47;;;;;;;11.16;100.00;102551.87;2009974;71;32814;-77
2022/02/09 00:58:44;;;;;;;65.23;60.67;;;;;;;11.18;100.00;102546.05;2006943;71;32748;-74
2022/02/09 02:01:18;;;;;;;65.37;60.97;;;;;;;11.11;100.00;102511.44;2005336;71;32873;-74
2022/02/09 02:07:24;;;;;;;66.63;62.20;;;;;;;11.13;100.00;102516.73;2016009;71;33008;-75
2022/02/09 02:13:53;;;;;;;66.87;62.47;;;;;;;11.12;100.00;102507.57;2011293;71;33286;-74
2022/02/09 02:19:46;;;;;;;69.60;65.10;;;;;;;10.99;100.00;102506.48;1994943;71;32892;-74
2022/02/09 02:26:02;;;;;;;69.70;65.10;;;;;;;11.05;100.00;102495.73;1996641;71;32753;-75
2022/02/09 02:32:22;;;;;;;69.13;64.70;;;;;;;11.02;100.00;102490.67;2003355;71;32902;-75
2022/02/09 02:57:19;;;;;;;67.13;62.80;;;;;;;11.04;100.00;102485.70;2007776;71;33185;-75
2022/02/09 03:09:56;;;;;;;65.00;60.70;;;;;;;10.96;100.00;102468.87;1998511;71;33278;-74
2022/02/09 03:15:57;;;;;;;67.50;62.97;;;;;;;11.04;100.00;102464.02;2014563;71;32817;-74
2022/02/09 03:22:12;;;;;;;68.73;64.40;;;;;;;10.94;100.00;102457.17;2015949;71;33390;-74
2022/02/09 03:53:49;;;;;;;68.47;64.07;;;;;;;11.00;100.00;102442.80;2007399;71;32835;-75
2022/02/09 03:59:39;;;;;;;65.57;61.27;;;;;;;11.10;100.00;102439.37;1996212;71;33242;-73
2022/02/09 04:05:41;;;;;;;64.70;60.40;;;;;;;11.06;100.00;102442.35;2007628;71;32749;-74
2022/02/09 04:11:47;;;;;;;67.17;62.77;;;;;;;11.02;100.00;102431.44;2014405;71;33316;-74
2022/02/09 04:18:02;;;;;;;66.07;61.77;;;;;;;10.82;100.00;102406.88;2009347;71;32943;-73
2022/02/09 04:36:45;;;;;;;65.20;60.90;;;;;;;10.96;100.00;102434.66;2012923;71;32792;-76
2022/02/09 04:42:52;;;;;;;68.07;63.57;;;;;;;10.95;100.00;102433.80;2001841;71;32825;-74
2022/02/09 04:55:32;;;;;;;67.37;62.87;;;;;;;10.89;100.00;102425.09;1991112;71;32807;-75
2022/02/09 05:01:50;;;;;;;66.80;62.30;;;;;;;10.86;100.00;102418.65;1994656;71;33319;-74
2022/02/09 05:26:39;;;;;;;65.50;60.80;;;;;;;10.42;100.00;102381.91;1994925;71;32752;-74
2022/02/09 05:32:42;;;;;;;63.77;59.17;;;;;;;10.38;100.00;102380.17;2014482;71;32916;-74
2022/02/09 05:38:45;;;;;;;64.30;59.57;;;;;;;10.35;100.00;102380.67;2017570;71;32920;-74
2022/02/09 05:44:47;;;;;;;66.20;61.40;;;;;;;10.33;100.00;102388.94;2015819;70;32826;-75
2022/02/09 05:51:00;;;;;;;67.10;62.20;;;;;;;10.23;100.00;102406.77;2017994;71;32804;-74
2022/02/09 05:57:13;;;;;;;64.27;59.40;;;;;;;10.08;100.00;102411.43;2011597;71;33324;-75
2022/02/09 06:03:13;;;;;;;62.60;57.90;;;;;;;10.09;100.00;102415.05;2013328;71;32875;-75
2022/02/09 06:09:16;;;;;;;63.63;58.73;;;;;;;9.98;100.00;102412.03;2009902;71;33367;-74
2022/02/09 06:21:43;;;;;;;64.80;60.00;;;;;;;9.83;100.00;102410.31;2013944;71;33356;-74
2022/02/09 06:27:46;;;;;;;65.27;60.47;;;;;;;9.90;100.00;102415.73;2016251;71;32846;-73
2022/02/09 06:33:50;;;;;;;64.23;59.53;;;;;;;9.70;100.00;102418.89;2008093;71;33305;-76
2022/02/09 06:39:57;;;;;;;64.77;59.97;;;;;;;9.68;100.00;102425.74;1999016;71;33294;-76
2022/02/09 06:46:01;;;;;;;67.10;62.20;;;;;;;9.46;100.00;102426.33;2016453;71;32876;-75
2022/02/09 06:52:04;;;;;;;62.27;57.37;;;;;;;9.52;100.00;102428.70;2009646;71;32834;-75
2022/02/09 06:58:16;;;;;;;63.10;58.40;;;;;;;9.52;100.00;102437.88;1991175;71;32743;-74
2022/02/09 07:04:11;;;;;;;66.43;61.63;;;;;;;9.56;100.00;102434.06;2001632;71;32737;-74
2022/02/09 07:10:16;;;;;;;61.53;56.87;;;;;;;9.33;100.00;102434.02;2018206;71;32951;-74
2022/02/09 07:16:20;;;;;;;61.97;57.50;;;;;;;9.30;100.00;102439.52;2010887;71;32913;-73
2022/02/09 07:22:26;;;;;;;64.63;60.03;;;;;;;9.22;100.00;102450.11;1999314;71;32970;-75
2022/02/09 07:28:29;;;;;;;69.53;64.43;;;;;;;9.08;100.00;102421.73;1994306;71;32762;-73
2022/02/09 07:34:31;;;;;;;70.83;65.93;;;;;;;9.14;100.00;102456.84;2003956;71;32898;-77
2022/02/09 07:40:34;;;;;;;67.50;62.73;;;;;;;9.18;100.00;102459.98;2012842;71;33240;-74
2022/02/09 07:46:54;;;;;;;65.43;60.73;;;;;;;9.08;100.00;102448.92;2008861;71;33415;-70
2022/02/09 07:52:53;;;;;;;68.47;63.63;;;;;;;9.23;100.00;102450.41;2008996;71;32798;-73
2022/02/09 07:58:54;;;;;;;63.00;58.50;;;;;;;9.21;100.00;102459.50;2015877;71;32834;-66
2022/02/09 08:04:57;;;;;;;64.57;60.00;;;;;;;9.37;100.00;102456.88;1991140;71;32762;-67
2022/02/09 08:11:13;;;;;;;58.73;54.40;;;;;;;9.41;100.00;102469.76;2011471;71;32778;-76
2022/02/09 08:24:04;;;;;;;64.70;60.00;;;;;;;9.66;100.00;102455.14;2013237;71;32898;-68
2022/02/09 08:30:07;;;;;;;62.13;57.47;;;;;;;9.83;100.00;102446.39;1991026;71;33330;-73
2022/02/09 08:36:07;;;;;;;61.67;57.27;;;;;;;9.90;100.00;102448.50;1999960;71;32718;-67
2022/02/09 08:42:10;;;;;;;65.80;61.00;;;;;;;9.95;100.00;102444.45;1995050;71;33202;-75
2022/02/09 08:48:13;;;;;;;63.83;59.17;;;;;;;10.13;100.00;102437.08;1991030;71;32750;-75
2022/02/09 08:54:17;;;;;;;65.40;60.80;;;;;;;10.17;100.00;102441.94;2017736;71;33378;-69
2022/02/09 09:00:25;;;;;;;65.43;61.03;;;;;;;10.24;100.00;102448.19;2001989;71;32799;-70
2022/02/09 09:06:27;;;;;;;64.20;59.70;;;;;;;10.27;100.00;102457.98;2010694;71;33273;-76
2022/02/09 10:03:48;;;;;;;57.03;53.03;;;;;;;11.28;100.00;102430.80;2015930;71;32802;-70
2022/02/09 10:36:00;;;;;;;55.27;51.77;;;;;;;12.07;100.00;102425.41;2011035;71;32852;-76
2022/02/09 10:41:59;;;;;;;55.13;51.70;;;;;;;12.22;100.00;102415.88;1997896;71;32819;-77
2022/02/09 10:48:08;;;;;;;53.33;50.03;;;;;;;12.38;100.00;102426.67;2001686;71;32815;-77
2022/02/09 10:54:16;;;;;;;52.43;49.23;;;;;;;12.42;100.00;102425.05;1999783;71;33022;-76
2022/02/09 11:00:20;;;;;;;52.67;49.30;;;;;;;12.44;100.00;102421.47;1996305;71;30867;-68
2022/02/09 11:06:27;;;;;;;53.27;49.87;;;;;;;12.42;100.00;102422.27;2015237;71;33388;-77
2022/02/09 11:12:34;;;;;;;55.83;52.33;;;;;;;12.68;100.00;102433.17;1990768;71;32914;-69
2022/02/09 11:18:37;;;;;;;52.40;49.20;;;;;;;12.71;100.00;102439.06;2003273;71;32876;-67
2022/02/09 11:24:45;;;;;;;52.67;49.30;;;;;;;12.71;100.00;102436.27;2000493;71;33518;-74
2022/02/09 11:31:07;;;;;;;51.83;48.73;;;;;;;12.79;100.00;102429.42;2014310;71;32812;-75
2022/02/09 11:37:25;;;;;;;50.37;47.27;;;;;;;12.78;100.00;102425.78;2005634;71;32769;-68
2022/02/09 11:43:57;;;;;;;49.40;46.50;;;;;;;12.98;100.00;102424.30;2006962;71;32825;-67
2022/02/09 11:50:22;;;;;;;50.97;47.87;;;;;;;12.94;100.00;102414.23;2012956;71;32844;-68
2022/02/09 12:12:00;;;;;;;58.17;54.87;;;;;;;13.15;100.00;102384.06;1999843;71;33048;-77
2022/02/09 12:18:15;;;;;;;61.27;57.87;;;;;;;13.40;100.00;102370.02;2010629;71;32796;-77
2022/02/09 12:23:58;;;;;;;60.10;56.80;;;;;;;13.45;100.00;102369.52;2015720;71;33446;-69
2022/02/09 12:29:45;;;;;;;48.00;45.27;;;;;;;13.64;100.00;102361.02;1997783;70;33346;-78
2022/02/09 12:35:38;;;;;;;54.10;51.17;;;;;;;13.73;100.00;102352.13;2016061;71;33492;-69
2022/02/09 12:41:25;;;;;;;50.00;47.10;;;;;;;13.72;100.00;102348.49;2018050;71;33285;-77
2022/02/09 12:47:12;;;;;;;45.83;43.43;;;;;;;13.66;100.00;102332.80;2010415;71;32977;-77
2022/02/09 12:52:58;;;;;;;46.40;43.80;;;;;;;13.77;100.00;102332.32;2013941;71;32933;-77
2022/02/09 12:58:43;;;;;;;46.13;43.73;;;;;;;13.78;100.00;102332.03;2010710;70;33438;-69
2022/02/09 13:04:39;;;;;;;46.27;43.57;;;;;;;13.79;100.00;102329.53;1963051;71;33479;-76
2022/02/09 13:10:26;;;;;;;46.47;43.80;;;;;;;13.67;100.00;102326.11;2015718;71;32946;-67
2022/02/09 13:16:19;;;;;;;47.93;45.00;;;;;;;14.07;100.00;102321.30;1993713;71;32999;-78
2022/02/09 13:22:44;;;;;;;47.40;44.80;;;;;;;14.09;100.00;102305.93;2014153;71;32922;-76
2022/02/09 14:31:37;;;;;;;46.77;44.17;;;;;;;13.64;100.00;102281.98;2016127;71;32942;-73
2022/02/09 14:47:07;;;;;;;50.70;48.00;;;;;;;13.54;100.00;102285.55;2004878;71;32933;-68
2022/02/09 14:48:19;;;;;;;53.27;50.40;;;;;;;13.46;100.00;102283.83;1994919;71;32844;-75
2022/02/09 14:54:02;;;;;;;50.97;48.20;;;;;;;13.39;100.00;102273.46;1990664;70;32862;-68
2022/02/09 15:00:02;;;;;;;53.13;50.13;;;;;;;13.36;100.00;102273.42;2012409;71;32918;-77
2022/02/09 15:06:07;;;;;;;54.50;51.13;;;;;;;13.37;100.00;102279.30;2003591;71;32854;-69
2022/02/09 15:11:49;;;;;;;51.53;48.63;;;;;;;13.36;100.00;102284.59;2004728;71;32796;-76
2022/02/09 15:17:36;;;;;;;53.77;50.70;;;;;;;13.33;100.00;102278.16;2001818;71;32922;-76
2022/02/09 15:23:12;;;;;;;55.03;51.83;;;;;;;13.26;100.00;102281.75;2010821;71;33247;-68
2022/02/09 15:28:58;;;;;;;57.20;53.63;;;;;;;13.28;100.00;102280.06;2012480;71;33269;-80
2022/02/09 15:34:46;;;;;;;54.43;51.13;;;;;;;13.18;100.00;102269.66;2014358;71;32862;-67
2022/02/09 15:40:34;;;;;;;55.83;52.57;;;;;;;13.20;100.00;102266.91;2008595;71;32963;-79
2022/02/09 15:58:57;;;;;;;56.80;53.30;;;;;;;13.25;100.00;102259.69;1997785;71;32816;-77
2022/02/09 16:10:37;;;;;;;56.30;52.73;;;;;;;13.18;100.00;102248.73;1999910;71;33186;-66
2022/02/09 16:17:01;;;;;;;61.03;57.33;;;;;;;13.06;100.00;102241.09;1997910;71;33264;-67
2022/02/09 16:22:33;;;;;;;59.80;55.80;;;;;;;12.96;100.00;102242.44;2004639;71;32870;-66
2022/02/09 16:46:35;;;;;;;59.10;55.10;;;;;;;12.70;100.00;102234.41;2001480;71;32752;-73
2022/02/09 16:52:24;;;;;;;59.93;55.73;;;;;;;12.62;100.00;102238.50;2010865;71;32851;-77
2022/02/09 16:55:00;;;;;;;61.60;57.40;;;;;;;12.53;100.00;102245.70;1975345;72;26270;-74
2022/02/09 17:18:57;;;;;;;62.63;57.83;;;;;;;12.12;100.00;102221.29;1990532;71;32904;-74
2022/02/09 17:24:36;;;;;;;62.53;57.93;;;;;;;11.99;100.00;102230.90;2012211;71;32998;-69
2022/02/09 17:30:43;;;;;;;62.97;58.13;;;;;;;11.88;100.00;102229.11;1996058;71;32823;-68
2022/02/09 17:36:23;;;;;;;61.97;57.30;;;;;;;11.90;100.00;102230.22;1995984;71;32835;-67
2022/02/09 17:54:24;;;;;;;60.10;55.30;;;;;;;11.75;100.00;102230.35;2001500;71;33643;-73
2022/02/09 18:00:08;;;;;;;60.03;55.23;;;;;;;11.78;100.00;102235.94;2005565;70;32808;-74
2022/02/09 18:05:47;;;;;;;62.10;57.17;;;;;;;11.88;100.00;102232.45;2002851;71;32807;-78
2022/02/09 18:11:44;;;;;;;60.13;55.00;;;;;;;11.86;100.00;102236.32;1996430;71;32765;-78
2022/02/09 18:29:53;;;;;;;58.23;53.50;;;;;;;11.82;100.00;102253.80;2014056;71;32888;-75
2022/02/09 18:48:01;;;;;;;59.07;54.47;;;;;;;11.74;100.00;102228.66;2017530;71;32841;-66
2022/02/09 18:59:59;;;;;;;58.30;53.63;;;;;;;11.63;100.00;102236.57;2010992;71;32754;-67
2022/02/09 19:05:41;;;;;;;58.47;53.87;;;;;;;11.58;100.00;102230.09;1999424;71;32802;-78
2022/02/09 19:17:32;;;;;;;57.93;53.33;;;;;;;11.65;100.00;102219.05;2009119;71;32796;-67
2022/02/09 19:29:53;;;;;;;56.97;52.37;;;;;;;11.58;100.00;102221.73;2008962;71;33422;-68
2022/02/09 19:42:09;;;;;;;60.60;55.87;;;;;;;11.52;100.00;102218.04;2009148;71;32835;-67
2022/02/09 19:47:25;;;;;;;56.93;52.50;;;;;;;11.51;100.00;102216.34;1991230;71;33226;-77
2022/02/09 19:53:27;;;;;;;57.23;52.47;;;;;;;11.57;100.00;102211.70;2005779;70;32787;-79
2022/02/09 19:59:15;;;;;;;60.67;56.00;;;;;;;11.53;100.00;102215.55;1996281;71;32781;-77
2022/02/09 20:04:59;;;;;;;62.63;57.93;;;;;;;11.52;100.00;102215.80;1997868;71;33452;-67
2022/02/09 20:10:43;;;;;;;65.23;60.20;;;;;;;11.42;100.00;102215.14;2001720;71;32765;-68
2022/02/09 20:16:27;;;;;;;62.53;57.87;;;;;;;11.47;100.00;102223.53;1999751;71;32857;-76
2022/02/09 20:22:11;;;;;;;62.03;57.03;;;;;;;11.42;100.00;102211.78;2009563;71;32750;-67
2022/02/09 20:27:56;;;;;;;63.93;59.13;;;;;;;11.47;100.00;102211.01;1998550;71;33248;-67
2022/02/09 20:33:46;;;;;;;65.50;60.40;;;;;;;11.45;100.00;102212.38;2018459;71;33275;-67
2022/02/09 20:39:32;;;;;;;58.57;53.77;;;;;;;11.39;100.00;102212.85;2014494;71;32803;-68
2022/02/09 20:45:20;;;;;;;60.90;56.20;;;;;;;11.31;100.00;102214.14;2000340;71;32731;-67
2022/02/09 20:51:01;;;;;;;59.53;54.70;;;;;;;11.37;100.00;102217.84;1998838;71;32885;-77
2022/02/09 20:56:48;;;;;;;58.53;53.80;;;;;;;11.14;100.00;102218.91;2016190;71;32795;-67
2022/02/09 21:02:47;;;;;;;57.13;52.63;;;;;;;10.78;100.00;102223.06;2008722;71;32947;-67
2022/02/09 21:08:42;;;;;;;55.70;51.17;;;;;;;10.88;100.00;102218.22;2010699;71;33282;-69
2022/02/09 21:14:43;;;;;;;56.13;51.80;;;;;;;10.77;100.00;102221.40;2013080;71;32746;-77
2022/02/09 21:20:42;;;;;;;58.20;53.70;;;;;;;10.68;100.00;102232.64;2000043;71;32816;-66
2022/02/09 21:26:43;;;;;;;62.23;57.73;;;;;;;10.63;100.00;102228.38;2016227;71;32948;-67
2022/02/09 21:57:15;;;;;;;72.27;67.47;;;;;;;10.34;100.00;102233.16;2012871;71;33425;-69
2022/02/09 22:21:17;;;;;;;70.23;65.53;;;;;;;10.10;100.00;102223.78;2016450;71;33341;-76
2022/02/09 22:27:11;;;;;;;73.87;68.87;;;;;;;10.24;100.00;102212.13;2009066;71;32847;-78
2022/02/09 22:50:57;;;;;;;71.30;66.50;;;;;;;9.96;100.00;102189.92;2015255;71;32841;-76
2022/02/09 22:56:42;;;;;;;69.63;64.73;;;;;;;10.05;100.00;102176.75;2010767;70;32936;-78
2022/02/09 23:02:27;;;;;;;72.17;67.30;;;;;;;10.05;100.00;102175.94;2000684;71;33242;-77
2022/02/09 23:08:36;;;;;;;68.37;63.77;;;;;;;10.05;100.00;102169.81;1999821;71;33312;-70
2022/02/09 23:14:18;;;;;;;65.97;61.33;;;;;;;10.10;100.00;102166.29;2003981;71;32880;-79
